Alderpoint, California
Current Conditions -  °F | °C
As of 8:35 PM on Sunday 21 Dec 2014 (Local Time) from KFOT Reporting Station
Overcast Overcast  
Wind Chill: 57°   Ceiling: 100
Heat Index: 57°   Visibility: 0.5mi
Dew Point: 57°   Wind: 3mph
Humidity: 100%   Direction: 300°WNW
Pressure: 30.33"   Gusts: NA
Location:  40.18°N, 123.61°W
Report Text: KFOT 220435Z AUTO 30003KT 1/2SM OVC001 14/14 A3033 RMK AO1 P0001
Loading
Personal Weather Stations






























Interactive Weather Map New forecast layout! Learn more

10-Day Weather Forecast

Advertisements
Track Severe Weather on mobile